Time;durP1;ratioP1;P1;durP2;ratioP2;P2;SDS_P1;SDS_P2;PMS_P1;PMS_P2;Temp;Humidity;BMP_temperature;BMP_pressure;BME280_temperature;BME280_humidity;BME280_pressure;Samples;Min_cycle;Max_cycle;Signal;HPM_P1;HPM_P2
2022/07/16 00:02:31;;;;;;;2.90;1.70;;;16.10;99.90;;;;;;5040560;28;20094;-73
2022/07/16 00:04:57;;;;;;;4.88;2.20;;;16.00;99.90;;;;;;5044143;28;20075;-73
2022/07/16 00:07:23;;;;;;;5.70;1.92;;;16.10;99.90;;;;;;5045563;28;20527;-74
2022/07/16 00:09:48;;;;;;;4.88;2.58;;;16.00;99.90;;;;;;5046922;28;20052;-75
2022/07/16 00:12:14;;;;;;;5.80;3.78;;;16.10;99.90;;;;;;5045322;28;20040;-73
2022/07/16 00:14:40;;;;;;;6.68;3.60;;;16.10;99.90;;;;;;5041663;28;20045;-73
2022/07/16 00:17:06;;;;;;;6.22;3.17;;;16.10;99.90;;;;;;5043048;28;20033;-73
2022/07/16 00:19:31;;;;;;;3.65;2.80;;;16.10;99.90;;;;;;5038868;28;20057;-74
2022/07/16 00:21:57;;;;;;;4.03;3.65;;;16.10;99.90;;;;;;5042104;28;20044;-73
2022/07/16 00:24:24;;;;;;;4.47;2.80;;;16.10;99.90;;;;;;5045215;28;20064;-73
2022/07/16 00:26:51;;;;;;;6.78;3.25;;;16.10;99.90;;;;;;5042881;28;20515;-73
2022/07/16 00:29:18;;;;;;;5.78;2.75;;;16.10;99.90;;;;;;5032269;28;20415;-73
2022/07/16 00:31:46;;;;;;;9.15;3.67;;;16.10;99.90;;;;;;5042885;28;20052;-73
2022/07/16 00:34:11;;;;;;;8.18;3.40;;;16.10;99.90;;;;;;5041494;28;20084;-74
2022/07/16 00:36:39;;;;;;;3.63;2.92;;;16.10;99.90;;;;;;5041141;28;20061;-73
2022/07/16 00:39:06;;;;;;;4.07;2.38;;;16.20;99.90;;;;;;5044443;28;20037;-74
2022/07/16 00:41:32;;;;;;;6.50;3.63;;;16.20;99.90;;;;;;5042809;28;20040;-75
2022/07/16 00:44:04;;;;;;;7.43;3.25;;;16.20;99.90;;;;;;5041039;28;20045;-75
2022/07/16 00:46:30;;;;;;;8.35;4.25;;;16.10;99.90;;;;;;5046389;28;20127;-75
2022/07/16 00:48:56;;;;;;;7.65;3.92;;;16.10;99.90;;;;;;5042946;28;20502;-74
2022/07/16 00:51:23;;;;;;;10.05;4.35;;;15.90;99.90;;;;;;5042467;28;20121;-75
2022/07/16 00:53:50;;;;;;;7.03;3.55;;;15.90;99.90;;;;;;5043586;28;20048;-75
2022/07/16 00:56:16;;;;;;;3.22;2.75;;;15.70;99.90;;;;;;5043655;28;20049;-75
2022/07/16 00:58:43;;;;;;;5.47;2.90;;;15.70;99.90;;;;;;5044954;28;20110;-74
2022/07/16 01:01:10;;;;;;;5.05;2.67;;;15.80;99.90;;;;;;5041237;28;20501;-73
2022/07/16 01:03:37;;;;;;;7.40;2.78;;;15.80;99.90;;;;;;5037552;28;20056;-73
2022/07/16 01:06:05;;;;;;;3.60;2.15;;;15.70;99.90;;;;;;5034749;28;20407;-75
2022/07/16 01:08:33;;;;;;;3.80;2.15;;;15.70;99.90;;;;;;5044919;28;20644;-72
2022/07/16 01:10:59;;;;;;;8.15;2.22;;;15.50;99.90;;;;;;5040867;28;20545;-75
2022/07/16 01:13:26;;;;;;;6.05;1.75;;;15.60;99.90;;;;;;5043488;28;20055;-73
2022/07/16 01:15:51;;;;;;;7.95;2.30;;;15.50;99.90;;;;;;5043216;28;20115;-73
2022/07/16 01:18:17;;;;;;;5.53;1.88;;;15.50;99.90;;;;;;5044133;28;20041;-74
2022/07/16 01:20:43;;;;;;;4.10;1.60;;;15.60;99.90;;;;;;5042448;28;20073;-74
2022/07/16 01:23:09;;;;;;;7.55;1.83;;;15.70;99.90;;;;;;5043165;28;20056;-73
2022/07/16 01:25:35;;;;;;;4.50;1.50;;;15.60;99.90;;;;;;5041137;28;20049;-74
2022/07/16 01:28:00;;;;;;;6.03;1.60;;;15.50;99.90;;;;;;5045364;28;20073;-74
2022/07/16 01:30:26;;;;;;;9.55;2.80;;;15.60;99.90;;;;;;5040814;28;20791;-74
2022/07/16 01:32:52;;;;;;;10.88;3.17;;;15.50;99.90;;;;;;5044043;28;20399;-74
2022/07/16 01:35:18;;;;;;;8.57;2.17;;;15.60;99.90;;;;;;5044715;28;20080;-74
2022/07/16 01:37:44;;;;;;;5.10;1.52;;;15.70;99.90;;;;;;5045345;28;20045;-74
2022/07/16 01:40:10;;;;;;;4.30;1.30;;;15.70;99.90;;;;;;5049332;28;20045;-74
2022/07/16 01:42:35;;;;;;;8.95;1.92;;;15.50;99.90;;;;;;5058162;22;20041;-73
2022/07/16 01:45:01;;;;;;;5.05;1.85;;;15.50;99.90;;;;;;5030234;28;20053;-73
2022/07/16 01:47:27;;;;;;;4.03;1.63;;;15.70;99.90;;;;;;5040596;28;20578;-74
2022/07/16 01:49:53;;;;;;;4.13;1.17;;;15.50;99.90;;;;;;5056535;28;20109;-74
2022/07/16 01:52:21;;;;;;;10.15;2.03;;;15.50;99.90;;;;;;5041916;28;20041;-74
2022/07/16 01:54:48;;;;;;;12.75;2.45;;;15.70;99.90;;;;;;5042708;28;20052;-73
2022/07/16 01:57:14;;;;;;;4.88;1.23;;;15.40;99.90;;;;;;5031432;28;20048;-73
2022/07/16 01:59:41;;;;;;;4.53;1.15;;;15.60;99.90;;;;;;5042587;28;20040;-74
2022/07/16 02:02:07;;;;;;;4.53;1.80;;;15.60;99.90;;;;;;5054156;28;20490;-74
2022/07/16 02:04:33;;;;;;;6.95;1.85;;;15.40;99.90;;;;;;5054251;28;20040;-73
2022/07/16 02:06:58;;;;;;;3.50;1.33;;;15.50;99.90;;;;;;5045945;28;20049;-73
2022/07/16 02:09:24;;;;;;;1.33;0.93;;;15.40;99.90;;;;;;5045098;28;20534;-74
2022/07/16 02:11:50;;;;;;;3.15;1.35;;;15.50;99.90;;;;;;5046234;28;20422;-75
2022/07/16 02:14:16;;;;;;;5.32;1.50;;;15.30;99.90;;;;;;5045664;28;20044;-74
2022/07/16 02:16:41;;;;;;;3.95;1.10;;;15.30;99.90;;;;;;5046164;28;20449;-74
2022/07/16 02:19:07;;;;;;;4.43;1.50;;;15.20;99.90;;;;;;5042949;28;20099;-74
2022/07/16 02:21:33;;;;;;;5.15;1.33;;;15.30;99.90;;;;;;5038475;28;20493;-74
2022/07/16 02:23:59;;;;;;;16.40;3.78;;;15.30;99.90;;;;;;5046661;28;20052;-74
2022/07/16 02:26:25;;;;;;;3.00;1.27;;;15.20;99.90;;;;;;5046341;28;20044;-74
2022/07/16 02:28:52;;;;;;;8.93;2.58;;;15.20;99.90;;;;;;5045919;28;20033;-74
2022/07/16 02:31:18;;;;;;;25.48;2.15;;;15.30;99.90;;;;;;5049342;28;20048;-74
2022/07/16 02:33:44;;;;;;;5.03;1.98;;;15.20;99.90;;;;;;5046228;28;20044;-74
2022/07/16 02:36:10;;;;;;;2.97;1.15;;;15.20;99.90;;;;;;5058048;28;20072;-74
2022/07/16 02:38:36;;;;;;;4.05;1.27;;;15.10;99.90;;;;;;5045584;28;20051;-76
2022/07/16 02:41:02;;;;;;;4.20;1.83;;;15.00;99.90;;;;;;5045309;28;21434;-76
2022/07/16 02:43:28;;;;;;;3.60;1.42;;;15.10;99.90;;;;;;5039254;28;20412;-76
2022/07/16 02:45:53;;;;;;;1.75;1.48;;;15.00;99.90;;;;;;5059561;28;20054;-76
2022/07/16 02:48:19;;;;;;;5.80;1.27;;;15.10;99.90;;;;;;5044191;28;20041;-74
2022/07/16 02:50:45;;;;;;;8.32;1.50;;;15.10;99.90;;;;;;5047316;28;20057;-74
2022/07/16 02:53:11;;;;;;;9.23;1.75;;;15.10;99.90;;;;;;5045341;28;20068;-75
2022/07/16 02:55:36;;;;;;;6.75;1.77;;;15.10;99.90;;;;;;5046900;28;20139;-74
2022/07/16 02:58:02;;;;;;;8.05;2.05;;;14.90;99.90;;;;;;5041463;28;20092;-74
2022/07/16 03:00:28;;;;;;;5.05;1.88;;;14.90;99.90;;;;;;5050151;28;20156;-75
2022/07/16 03:02:55;;;;;;;7.95;2.13;;;15.00;99.90;;;;;;5041028;28;20080;-75
2022/07/16 03:05:21;;;;;;;3.28;1.70;;;15.00;99.90;;;;;;5045923;28;20458;-75
2022/07/16 03:07:47;;;;;;;4.07;1.77;;;14.80;99.90;;;;;;5047414;28;20041;-74
2022/07/16 03:10:13;;;;;;;7.35;2.17;;;14.90;99.90;;;;;;5045689;28;20056;-75
2022/07/16 03:12:40;;;;;;;7.60;1.80;;;14.90;99.90;;;;;;5048182;28;20144;-75
2022/07/16 03:15:07;;;;;;;4.25;1.98;;;14.70;99.90;;;;;;5050118;28;20048;-75
2022/07/16 03:17:33;;;;;;;5.45;1.40;;;14.70;99.90;;;;;;5053584;28;20517;-75
2022/07/16 03:19:59;;;;;;;6.05;1.52;;;14.70;99.90;;;;;;5046404;28;20480;-75
2022/07/16 03:22:25;;;;;;;6.15;2.25;;;14.60;99.90;;;;;;5044568;28;20040;-75
2022/07/16 03:24:51;;;;;;;6.57;1.83;;;14.70;99.90;;;;;;5047213;28;21103;-76
2022/07/16 03:27:16;;;;;;;3.72;1.42;;;14.60;99.90;;;;;;5059401;28;20044;-75
2022/07/16 03:29:42;;;;;;;7.65;2.40;;;14.70;99.90;;;;;;5044965;28;20045;-75
2022/07/16 03:32:07;;;;;;;4.35;1.33;;;14.60;99.90;;;;;;5042855;28;20048;-76
2022/07/16 03:34:33;;;;;;;6.40;1.75;;;14.50;99.90;;;;;;5065006;28;20037;-75
2022/07/16 03:36:59;;;;;;;8.40;1.73;;;14.60;99.90;;;;;;5056648;28;20101;-76
2022/07/16 03:39:25;;;;;;;6.22;1.85;;;14.60;99.90;;;;;;5046084;28;20040;-76
2022/07/16 03:41:51;;;;;;;6.35;2.38;;;14.50;99.90;;;;;;5043119;28;20037;-74
2022/07/16 03:44:17;;;;;;;6.68;2.80;;;14.50;99.90;;;;;;5044285;28;20053;-76
2022/07/16 03:46:43;;;;;;;23.25;2.33;;;14.40;99.90;;;;;;5052672;28;20533;-75
2022/07/16 03:49:09;;;;;;;4.97;2.10;;;14.40;99.90;;;;;;5064936;28;20406;-75
2022/07/16 03:51:35;;;;;;;7.70;2.00;;;14.50;99.90;;;;;;5053699;28;20049;-75
2022/07/16 03:54:02;;;;;;;5.47;2.05;;;14.40;99.90;;;;;;5045225;28;20047;-74
2022/07/16 03:56:27;;;;;;;18.42;2.70;;;14.40;99.90;;;;;;5056173;28;20423;-74
2022/07/16 03:58:54;;;;;;;6.88;1.92;;;14.50;99.90;;;;;;5045860;28;20053;-75
2022/07/16 04:01:20;;;;;;;5.43;1.20;;;14.40;99.90;;;;;;5047930;28;20049;-76
2022/07/16 04:03:45;;;;;;;2.17;0.90;;;14.30;99.90;;;;;;5048868;28;20046;-75
2022/07/16 04:06:11;;;;;;;6.32;1.98;;;14.40;99.90;;;;;;5044831;28;20114;-75
2022/07/16 04:08:37;;;;;;;8.15;1.73;;;14.40;99.90;;;;;;5042727;28;20052;-74
2022/07/16 04:11:03;;;;;;;8.43;1.40;;;14.30;99.90;;;;;;5057314;28;20047;-75
2022/07/16 04:13:28;;;;;;;7.95;1.98;;;14.30;99.90;;;;;;5044028;28;20068;-74
2022/07/16 04:15:55;;;;;;;5.90;2.42;;;14.40;99.90;;;;;;5043037;28;20041;-76
2022/07/16 04:18:20;;;;;;;7.05;1.50;;;14.50;99.90;;;;;;5046130;28;20052;-75
2022/07/16 04:20:47;;;;;;;7.10;2.58;;;14.40;99.90;;;;;;5045615;28;20319;-74
2022/07/16 04:23:12;;;;;;;6.90;1.98;;;14.40;99.90;;;;;;5042085;28;20041;-74
2022/07/16 04:25:38;;;;;;;3.45;0.93;;;14.80;99.90;;;;;;5042810;28;20232;-74
2022/07/16 04:28:04;;;;;;;7.07;1.40;;;15.10;99.90;;;;;;5043343;28;20037;-74
2022/07/16 04:30:30;;;;;;;12.10;2.30;;;14.90;99.90;;;;;;5043359;28;20068;-74
2022/07/16 04:32:56;;;;;;;10.95;2.65;;;14.70;99.90;;;;;;5051338;28;20394;-75
2022/07/16 04:35:21;;;;;;;7.35;1.90;;;14.60;99.90;;;;;;5044199;28;20102;-74
2022/07/16 04:37:47;;;;;;;5.15;1.67;;;14.60;99.90;;;;;;5044792;28;20433;-74
2022/07/16 04:40:13;;;;;;;10.48;1.70;;;14.50;99.90;;;;;;5044628;28;20121;-74
2022/07/16 04:42:40;;;;;;;6.30;1.77;;;14.50;99.90;;;;;;5039020;28;20048;-74
2022/07/16 04:45:08;;;;;;;11.85;2.08;;;14.50;99.90;;;;;;5053093;28;20047;-74
2022/07/16 04:47:34;;;;;;;7.35;3.10;;;14.60;99.90;;;;;;5044223;28;20123;-75
2022/07/16 04:50:00;;;;;;;7.40;1.90;;;14.70;99.90;;;;;;5044481;28;20116;-74
2022/07/16 04:52:27;;;;;;;4.18;0.90;;;14.70;99.90;;;;;;5027112;28;20040;-75
2022/07/16 04:54:53;;;;;;;3.55;0.95;;;14.80;99.90;;;;;;5041540;28;20055;-75
2022/07/16 04:57:18;;;;;;;14.30;3.22;;;14.80;99.90;;;;;;5040345;28;20043;-75
2022/07/16 04:59:44;;;;;;;3.67;0.90;;;14.80;99.90;;;;;;5044265;28;20044;-75
2022/07/16 05:04:54;;;;;;;7.00;1.45;;;14.80;99.90;;;;;;5039816;28;20392;-75
2022/07/16 05:07:20;;;;;;;8.82;1.35;;;14.80;99.90;;;;;;5059886;28;20045;-75
2022/07/16 05:09:45;;;;;;;10.25;1.42;;;14.80;99.90;;;;;;5049620;28;20041;-75
2022/07/16 05:12:11;;;;;;;6.75;2.13;;;14.80;99.90;;;;;;5047945;28;20033;-75
2022/07/16 05:14:37;;;;;;;7.05;1.45;;;14.80;99.90;;;;;;5046058;28;20052;-75
2022/07/16 05:17:03;;;;;;;3.95;1.10;;;14.90;99.90;;;;;;5046584;28;20075;-75
2022/07/16 05:19:28;;;;;;;6.82;1.10;;;15.00;99.90;;;;;;5045607;28;20040;-76
2022/07/16 05:21:54;;;;;;;9.98;1.10;;;15.00;99.90;;;;;;5046761;28;20052;-75
2022/07/16 05:24:20;;;;;;;5.38;1.35;;;15.00;99.90;;;;;;5061717;28;20051;-75
2022/07/16 05:26:45;;;;;;;3.53;1.70;;;15.10;99.90;;;;;;5044795;28;20041;-73
2022/07/16 05:29:11;;;;;;;4.72;0.82;;;15.10;99.90;;;;;;5049947;28;20040;-74
2022/07/16 05:31:37;;;;;;;5.13;1.65;;;15.10;99.90;;;;;;5048399;28;20048;-73
2022/07/16 05:34:02;;;;;;;7.15;1.35;;;15.20;99.90;;;;;;5047322;28;20052;-73
2022/07/16 05:36:28;;;;;;;2.95;0.85;;;15.10;99.90;;;;;;5044332;28;20043;-75
2022/07/16 05:38:53;;;;;;;10.93;1.55;;;15.20;99.90;;;;;;5049690;28;20056;-75
2022/07/16 05:41:19;;;;;;;8.23;1.73;;;15.20;99.90;;;;;;5026120;28;20037;-75
2022/07/16 05:43:45;;;;;;;7.15;1.85;;;15.40;99.90;;;;;;5046989;28;20041;-74
2022/07/16 05:46:10;;;;;;;8.43;1.00;;;15.40;99.90;;;;;;5047857;28;20056;-74
2022/07/16 05:48:36;;;;;;;5.10;1.55;;;15.40;99.90;;;;;;5043162;28;20033;-75
2022/07/16 05:51:02;;;;;;;14.93;2.20;;;15.50;99.90;;;;;;5056471;28;20044;-74
2022/07/16 05:53:28;;;;;;;8.57;2.20;;;15.40;99.90;;;;;;5048633;28;20037;-76
2022/07/16 05:55:53;;;;;;;5.57;1.20;;;15.40;99.90;;;;;;5046794;28;20041;-77
2022/07/16 05:58:19;;;;;;;5.00;0.90;;;15.40;99.90;;;;;;5046025;28;20124;-77
2022/07/16 06:00:44;;;;;;;2.92;1.33;;;15.40;99.90;;;;;;5045739;28;20479;-77
2022/07/16 06:03:10;;;;;;;6.30;1.50;;;15.40;99.90;;;;;;5051585;28;20139;-76
2022/07/16 06:05:36;;;;;;;2.58;0.60;;;15.30;99.90;;;;;;5045865;28;20449;-71
2022/07/16 06:08:02;;;;;;;4.22;0.90;;;15.30;99.90;;;;;;5051228;28;20079;-76
2022/07/16 06:10:28;;;;;;;6.40;1.10;;;15.10;99.90;;;;;;5049967;28;20077;-74
2022/07/16 06:12:54;;;;;;;6.78;1.05;;;15.10;99.90;;;;;;5055807;28;20040;-73
2022/07/16 06:15:19;;;;;;;6.05;1.00;;;15.20;99.90;;;;;;5048489;28;20403;-74
2022/07/16 06:17:45;;;;;;;2.55;1.00;;;15.30;99.90;;;;;;5054409;28;20469;-73
2022/07/16 06:20:11;;;;;;;9.55;2.13;;;15.50;99.90;;;;;;5040674;28;20040;-75
2022/07/16 06:22:38;;;;;;;9.10;1.48;;;15.50;99.90;;;;;;5047853;28;20043;-74
2022/07/16 06:25:05;;;;;;;3.55;1.13;;;15.50;99.90;;;;;;5047472;28;20045;-73
2022/07/16 06:27:30;;;;;;;5.25;1.10;;;15.70;99.90;;;;;;5045076;28;20498;-73
2022/07/16 06:30:00;;;;;;;3.80;1.48;;;15.80;99.90;;;;;;5047836;28;20095;-72
2022/07/16 06:32:26;;;;;;;5.53;0.60;;;15.80;99.90;;;;;;5046172;28;20055;-73
2022/07/16 06:34:51;;;;;;;3.83;0.85;;;15.70;99.90;;;;;;5046105;28;20388;-74
2022/07/16 06:37:17;;;;;;;6.95;2.15;;;15.60;99.90;;;;;;5047480;28;20487;-72
2022/07/16 06:39:43;;;;;;;3.05;0.63;;;15.70;99.90;;;;;;5047359;28;20056;-74
2022/07/16 06:42:08;;;;;;;5.75;1.58;;;15.60;99.90;;;;;;5050907;28;20063;-73
2022/07/16 06:44:34;;;;;;;9.70;0.57;;;15.60;99.90;;;;;;5065619;28;20059;-72
2022/07/16 06:47:00;;;;;;;5.50;1.45;;;15.70;99.90;;;;;;5047446;28;20136;-72
2022/07/16 06:49:25;;;;;;;4.00;1.17;;;15.70;99.90;;;;;;5048040;28;20091;-73
2022/07/16 06:51:51;;;;;;;8.32;1.30;;;15.60;99.90;;;;;;5044886;28;20110;-73
2022/07/16 06:54:17;;;;;;;16.90;2.45;;;15.70;99.90;;;;;;5047954;28;20056;-72
2022/07/16 06:56:42;;;;;;;3.20;0.82;;;15.80;99.90;;;;;;5053516;28;20032;-72
2022/07/16 06:59:08;;;;;;;5.95;0.77;;;16.60;99.90;;;;;;5057901;28;20084;-73
2022/07/16 07:01:34;;;;;;;3.97;0.65;;;17.00;99.90;;;;;;5040332;28;20126;-73
2022/07/16 07:03:59;;;;;;;6.15;1.23;;;16.90;99.90;;;;;;5045421;28;20063;-74
2022/07/16 07:06:25;;;;;;;4.97;1.65;;;17.40;99.90;;;;;;5050336;28;20151;-74
2022/07/16 07:08:50;;;;;;;4.10;1.08;;;17.20;99.90;;;;;;5051191;28;20399;-74
2022/07/16 07:11:16;;;;;;;8.57;0.85;;;18.00;99.90;;;;;;5044664;28;20040;-72
2022/07/16 07:13:42;;;;;;;4.03;1.23;;;18.40;99.90;;;;;;5062506;28;20043;-75
2022/07/16 07:16:07;;;;;;;7.80;0.80;;;19.20;99.90;;;;;;5050966;28;20403;-73
2022/07/16 07:18:33;;;;;;;8.00;1.10;;;19.80;99.90;;;;;;5046476;28;20045;-73
2022/07/16 07:21:00;;;;;;;2.15;0.85;;;19.20;99.90;;;;;;5047463;28;20380;-73
2022/07/16 07:23:26;;;;;;;5.07;0.70;;;17.90;99.90;;;;;;5045274;28;20045;-73
2022/07/16 07:25:52;;;;;;;3.05;0.77;;;19.50;99.90;;;;;;5044962;28;20041;-75
2022/07/16 07:28:17;;;;;;;6.53;0.60;;;19.40;99.90;;;;;;5044625;28;20475;-76
2022/07/16 07:30:43;;;;;;;5.38;0.93;;;20.40;99.90;;;;;;5044067;28;20159;-73
2022/07/16 07:33:09;;;;;;;5.40;0.90;;;19.20;99.90;;;;;;5044372;28;20506;-75
2022/07/16 07:35:35;;;;;;;2.97;0.57;;;19.80;99.90;;;;;;5059573;28;20040;-74
2022/07/16 07:38:01;;;;;;;5.63;0.60;;;19.60;99.90;;;;;;5058226;28;20072;-74
2022/07/16 07:40:27;;;;;;;3.33;0.93;;;20.10;99.90;;;;;;5043128;28;20041;-74
2022/07/16 07:42:54;;;;;;;5.28;0.68;;;20.60;99.90;;;;;;5046911;28;20135;-74
2022/07/16 07:45:20;;;;;;;2.88;0.80;;;21.30;99.90;;;;;;5046557;28;20044;-73
2022/07/16 07:47:47;;;;;;;5.05;0.90;;;20.20;99.90;;;;;;5045416;28;20094;-73
2022/07/16 07:50:13;;;;;;;4.53;0.75;;;20.10;99.90;;;;;;5043949;28;20132;-74
2022/07/16 07:52:39;;;;;;;4.50;0.60;;;19.00;99.90;;;;;;5047726;28;20120;-75
2022/07/16 07:55:06;;;;;;;6.70;0.63;;;18.60;99.90;;;;;;5043301;28;20056;-74
2022/07/16 07:57:32;;;;;;;0.85;0.32;;;18.70;99.90;;;;;;5044415;28;20041;-75
2022/07/16 07:59:57;;;;;;;4.28;0.50;;;18.50;99.90;;;;;;5040035;28;20060;-75
2022/07/16 08:02:23;;;;;;;1.98;0.57;;;17.90;99.90;;;;;;5047406;28;20535;-73
2022/07/16 08:04:49;;;;;;;4.95;1.15;;;17.60;99.90;;;;;;5046977;28;20102;-77
2022/07/16 08:07:14;;;;;;;2.08;0.60;;;18.00;99.90;;;;;;5028681;28;20116;-74
2022/07/16 08:09:40;;;;;;;3.03;0.63;;;17.80;99.90;;;;;;5045587;28;20163;-77
2022/07/16 08:12:06;;;;;;;2.60;0.60;;;17.80;99.90;;;;;;5044115;28;20079;-76
2022/07/16 08:14:32;;;;;;;2.63;0.52;;;17.90;99.90;;;;;;5047407;28;20068;-74
2022/07/16 08:16:58;;;;;;;4.60;1.23;;;17.80;99.90;;;;;;5044805;28;20113;-76
2022/07/16 08:19:24;;;;;;;9.60;2.05;;;17.90;99.90;;;;;;5059621;28;20124;-75
2022/07/16 08:21:50;;;;;;;4.20;0.80;;;17.80;99.90;;;;;;5049755;28;20128;-77
2022/07/16 08:27:00;;;;;;;3.53;0.63;;;17.50;99.90;;;;;;5046587;28;20079;-76
2022/07/16 08:29:26;;;;;;;2.17;0.60;;;17.20;99.90;;;;;;5045967;28;20037;-78
2022/07/16 08:31:51;;;;;;;4.05;0.80;;;17.00;99.90;;;;;;5041695;28;20136;-78
2022/07/16 08:34:17;;;;;;;5.05;0.70;;;16.90;99.90;;;;;;5046537;28;20044;-78
2022/07/16 08:36:43;;;;;;;3.78;0.60;;;16.90;99.90;;;;;;5046512;28;20040;-80
2022/07/16 08:39:08;;;;;;;8.07;1.17;;;16.90;99.90;;;;;;5044003;28;20052;-76
2022/07/16 08:41:35;;;;;;;4.03;1.70;;;17.00;99.90;;;;;;5045136;28;20033;-76
2022/07/16 08:44:01;;;;;;;4.85;1.33;;;17.10;99.90;;;;;;5047859;28;20057;-75
2022/07/16 08:46:29;;;;;;;2.90;0.52;;;17.30;99.90;;;;;;5047418;28;20043;-77
2022/07/16 08:48:55;;;;;;;9.57;1.00;;;17.40;99.90;;;;;;5053448;28;20131;-76
2022/07/16 08:51:31;;;;;;;6.00;0.77;;;17.70;99.90;;;;;;5051248;28;20115;-77
2022/07/16 08:54:19;;;;;;;3.90;0.70;;;17.40;99.90;;;;;;5063222;28;20033;-76
2022/07/16 08:56:45;;;;;;;4.32;1.55;;;17.10;99.90;;;;;;5045174;28;20037;-76
2022/07/16 08:59:13;;;;;;;5.93;1.38;;;17.00;99.90;;;;;;5043222;28;20033;-77
2022/07/16 09:01:39;;;;;;;5.72;0.70;;;17.00;99.90;;;;;;5045060;28;20049;-76
2022/07/16 09:04:05;;;;;;;6.35;0.80;;;17.80;99.90;;;;;;5043548;28;20546;-75
2022/07/16 09:06:31;;;;;;;5.80;0.95;;;17.60;99.90;;;;;;5045268;28;20037;-75
2022/07/16 09:08:57;;;;;;;7.93;1.83;;;17.30;99.90;;;;;;5044737;28;20074;-77
2022/07/16 09:11:26;;;;;;;5.68;1.13;;;17.00;99.90;;;;;;5041544;28;20056;-76
2022/07/16 09:14:15;;;;;;;3.72;0.88;;;17.40;99.90;;;;;;5050221;28;20533;-76
2022/07/16 09:16:44;;;;;;;5.72;0.85;;;18.10;99.90;;;;;;5037625;28;20094;-76
2022/07/16 09:19:24;;;;;;;7.03;1.85;;;18.10;99.90;;;;;;5047854;28;20083;-77
2022/07/16 09:22:04;;;;;;;;;;;17.90;99.90;;;;;;5038365;28;20103;-78
2022/07/16 09:24:38;;;;;;;8.30;1.07;;;17.60;99.90;;;;;;5047739;28;19920;-77
2022/07/16 09:27:25;;;;;;;5.30;0.98;;;18.00;99.90;;;;;;5065596;28;20800;-77
2022/07/16 09:29:58;;;;;;;6.70;0.73;;;18.50;99.90;;;;;;5054643;28;20462;-77
2022/07/16 09:32:34;;;;;;;5.60;0.93;;;18.60;99.90;;;;;;5044199;28;20033;-76
2022/07/16 09:35:10;;;;;;;5.43;1.20;;;18.20;99.90;;;;;;5039844;28;20403;-77
2022/07/16 09:37:59;;;;;;;5.55;1.27;;;18.60;99.90;;;;;;5047130;28;20032;-76
2022/07/16 09:40:38;;;;;;;3.88;0.90;;;19.00;99.90;;;;;;5040420;28;20045;-76
2022/07/16 09:43:17;;;;;;;3.17;0.85;;;18.90;99.90;;;;;;5041174;28;20407;-76
2022/07/16 09:45:49;;;;;;;3.65;0.68;;;18.40;99.90;;;;;;5033688;28;20125;-77
2022/07/16 09:48:25;;;;;;;5.55;0.70;;;18.40;99.90;;;;;;5044938;28;20056;-76
2022/07/16 09:50:53;;;;;;;8.23;1.20;;;18.80;99.90;;;;;;5042023;28;20411;-77
2022/07/16 09:53:22;;;;;;;5.07;0.77;;;18.50;99.90;;;;;;5046751;28;20545;-76
2022/07/16 09:56:04;;;;;;;4.88;0.80;;;18.30;99.90;;;;;;5047089;28;20049;-76
2022/07/16 09:58:30;;;;;;;7.47;1.10;;;18.20;99.90;;;;;;5048034;28;20049;-75
2022/07/16 10:00:58;;;;;;;3.90;0.73;;;18.10;99.90;;;;;;5046481;28;20838;-77
2022/07/16 10:03:24;;;;;;;6.93;0.80;;;18.00;99.90;;;;;;5048038;28;20076;-77
2022/07/16 10:05:50;;;;;;;2.63;0.73;;;18.30;99.90;;;;;;5048228;28;20068;-79
2022/07/16 10:08:17;;;;;;;4.68;0.90;;;19.20;99.90;;;;;;5049495;28;20488;-77
2022/07/16 10:10:45;;;;;;;7.50;0.65;;;19.30;99.90;;;;;;5049237;28;20045;-75
2022/07/16 10:13:12;;;;;;;4.70;1.77;;;19.20;99.90;;;;;;5036787;28;20416;-75
2022/07/16 10:15:38;;;;;;;3.55;0.70;;;19.40;99.90;;;;;;5047017;28;20048;-75
2022/07/16 10:18:30;;;;;;;4.63;1.08;;;19.00;99.90;;;;;;5047078;28;20045;-76
2022/07/16 10:21:07;;;;;;;2.00;0.57;;;18.80;99.90;;;;;;5045383;28;20044;-76
2022/07/16 10:23:35;;;;;;;6.60;1.27;;;18.70;99.90;;;;;;5045151;28;20076;-76
2022/07/16 10:26:12;;;;;;;4.72;0.55;;;18.70;99.90;;;;;;5034422;28;20037;-75
2022/07/16 10:28:44;;;;;;;3.53;0.70;;;18.80;99.90;;;;;;5045397;28;20053;-74
2022/07/16 10:31:39;;;;;;;4.40;1.20;;;18.40;99.90;;;;;;5036920;28;20040;-76
2022/07/16 10:34:14;;;;;;;8.02;0.80;;;18.50;99.90;;;;;;5044164;28;20381;-84
2022/07/16 10:36:46;;;;;;;5.40;0.80;;;19.00;99.90;;;;;;5047421;28;20052;-79
2022/07/16 10:39:15;;;;;;;5.68;0.98;;;19.40;99.90;;;;;;5048518;28;20179;-78
2022/07/16 10:41:54;;;;;;;4.55;0.80;;;19.30;99.90;;;;;;5042265;28;20040;-79
2022/07/16 10:44:25;;;;;;;4.85;1.13;;;18.80;99.90;;;;;;5038647;28;20067;-77
2022/07/16 10:47:02;;;;;;;3.50;0.50;;;18.80;99.90;;;;;;5043441;28;20045;-77
2022/07/16 10:49:30;;;;;;;4.85;0.93;;;18.90;99.90;;;;;;5046255;28;20051;-76
2022/07/16 10:52:01;;;;;;;7.60;2.33;;;19.00;99.90;;;;;;5046935;28;20244;-76
2022/07/16 10:54:37;;;;;;;3.97;0.93;;;19.00;99.90;;;;;;5046355;28;20047;-77
2022/07/16 10:57:08;;;;;;;5.15;0.60;;;19.30;99.90;;;;;;5046307;28;20041;-76
2022/07/16 10:59:36;;;;;;;2.88;1.02;;;19.70;99.90;;;;;;5045995;28;20080;-77
2022/07/16 11:02:06;;;;;;;8.30;1.52;;;19.10;99.90;;;;;;5043148;28;20128;-76
2022/07/16 11:04:37;;;;;;;5.57;0.63;;;18.60;99.90;;;;;;5045711;28;20124;-77
2022/07/16 11:07:08;;;;;;;2.28;0.52;;;19.00;99.90;;;;;;5045357;28;20499;-77
2022/07/16 11:09:38;;;;;;;3.17;1.25;;;19.00;99.90;;;;;;5046984;28;20135;-76
2022/07/16 11:12:30;;;;;;;2.50;0.60;;;19.00;99.90;;;;;;5033725;28;20478;-76
2022/07/16 11:14:58;;;;;;;6.32;1.38;;;18.90;99.90;;;;;;5032861;28;20049;-76
2022/07/16 11:17:27;;;;;;;6.22;0.63;;;19.20;99.90;;;;;;5044635;28;20506;-76
2022/07/16 11:19:56;;;;;;;4.20;0.82;;;19.10;99.90;;;;;;5041662;28;20092;-75
2022/07/16 11:22:30;;;;;;;2.90;0.60;;;18.80;99.90;;;;;;5026714;28;20045;-77
2022/07/16 11:25:02;;;;;;;2.58;0.82;;;18.70;99.90;;;;;;5044034;28;20044;-76
2022/07/16 11:27:39;;;;;;;5.03;0.73;;;19.30;99.90;;;;;;5042739;28;20553;-78
2022/07/16 11:30:08;;;;;;;4.10;0.70;;;19.50;99.90;;;;;;5044357;28;20072;-79
2022/07/16 11:32:47;;;;;;;7.10;1.42;;;19.50;99.90;;;;;;5044773;28;20073;-78
2022/07/16 11:35:13;;;;;;;4.63;0.60;;;19.60;99.90;;;;;;5049591;28;20029;-80
2022/07/16 11:37:53;;;;;;;3.78;0.80;;;19.90;99.90;;;;;;5034015;28;20128;-80
2022/07/16 11:40:18;;;;;;;3.60;1.10;;;20.20;99.90;;;;;;5054371;28;20128;-78
2022/07/16 11:42:57;;;;;;;3.05;0.82;;;19.50;99.90;;;;;;5050788;28;20056;-77
2022/07/16 11:45:23;;;;;;;6.20;1.40;;;19.60;99.90;;;;;;5036661;28;20136;-82
2022/07/16 11:48:14;;;;;;;47.20;2.92;;;19.70;99.90;;;;;;5051891;28;20072;-77
2022/07/16 11:50:45;;;;;;;5.82;1.17;;;20.10;99.90;;;;;;5050940;28;20077;-79
2022/07/16 11:53:11;;;;;;;4.45;0.70;;;19.90;99.90;;;;;;5051080;28;20045;-77
2022/07/16 11:55:44;;;;;;;5.63;0.73;;;19.70;99.90;;;;;;5048092;28;20045;-77
2022/07/16 11:58:11;;;;;;;4.60;1.00;;;19.60;99.90;;;;;;5044356;28;20099;-75
2022/07/16 12:00:48;;;;;;;1.80;0.60;;;19.70;99.90;;;;;;5045797;28;20123;-77
2022/07/16 12:03:14;;;;;;;6.22;1.98;;;19.30;99.90;;;;;;5045852;28;20229;-79
2022/07/16 12:05:40;;;;;;;4.60;0.68;;;19.70;99.90;;;;;;5044983;28;20119;-77
2022/07/16 12:08:09;;;;;;;6.95;0.90;;;20.20;99.90;;;;;;5042108;28;20575;-77
2022/07/16 12:10:35;;;;;;;8.18;1.73;;;20.20;99.90;;;;;;5039275;28;20083;-76
2022/07/16 12:13:04;;;;;;;3.70;1.23;;;19.40;99.90;;;;;;5044005;28;20041;-76
2022/07/16 12:15:30;;;;;;;3.72;1.38;;;19.70;99.90;;;;;;5042935;28;20060;-75
2022/07/16 12:18:11;;;;;;;5.10;1.02;;;19.60;99.90;;;;;;5034322;28;20084;-75
2022/07/16 12:20:37;;;;;;;4.13;1.02;;;19.60;99.90;;;;;;5040995;28;20033;-76
2022/07/16 12:23:10;;;;;;;10.23;1.63;;;19.60;99.90;;;;;;5044219;28;20048;-75
2022/07/16 12:25:41;;;;;;;3.10;0.80;;;19.90;99.90;;;;;;5043434;28;20053;-74
2022/07/16 12:28:10;;;;;;;8.60;1.30;;;20.20;99.90;;;;;;5040466;28;20049;-75
2022/07/16 12:30:55;;;;;;;8.35;1.98;;;19.70;99.90;;;;;;5043628;28;20156;-75
2022/07/16 12:33:21;;;;;;;5.82;1.58;;;19.30;99.90;;;;;;5045299;28;20041;-75
2022/07/16 12:35:57;;;;;;;3.22;0.73;;;19.10;99.90;;;;;;5044843;28;20072;-76
2022/07/16 12:38:39;;;;;;;5.32;1.23;;;19.30;99.90;;;;;;5041995;28;20040;-75
2022/07/16 12:41:21;;;;;;;5.53;1.85;;;19.40;99.90;;;;;;5042503;28;20147;-76
2022/07/16 12:43:53;;;;;;;6.15;1.50;;;19.80;99.90;;;;;;5044731;28;20057;-75
2022/07/16 12:46:29;;;;;;;3.47;0.85;;;19.80;99.90;;;;;;5060353;28;20060;-80
2022/07/16 12:48:57;;;;;;;6.63;1.10;;;20.20;99.90;;;;;;5023741;28;20045;-75
2022/07/16 12:51:27;;;;;;;4.18;1.02;;;20.00;99.90;;;;;;5036516;28;20048;-74
2022/07/16 12:53:54;;;;;;;2.67;0.82;;;19.70;99.90;;;;;;5042696;28;20502;-76
2022/07/16 12:59:05;;;;;;;7.90;1.10;;;19.80;99.90;;;;;;5043664;28;20487;-76